sensor_id;sensor_type;location;lat;lon;timestamp;temperature;humidity
66522;SHT31;53349;53.538;8.584;2022-07-23T00:01:28;17.54;69.22
66522;SHT31;53349;53.538;8.584;2022-07-23T00:03:55;17.57;69.40
66522;SHT31;53349;53.538;8.584;2022-07-23T00:06:21;17.57;69.40
66522;SHT31;53349;53.538;8.584;2022-07-23T00:08:46;17.55;68.88
66522;SHT31;53349;53.538;8.584;2022-07-23T00:11:12;17.55;68.91
66522;SHT31;53349;53.538;8.584;2022-07-23T00:13:37;17.57;68.97
66522;SHT31;53349;53.538;8.584;2022-07-23T00:16:03;17.59;68.77
66522;SHT31;53349;53.538;8.584;2022-07-23T00:18:29;17.59;68.86
66522;SHT31;53349;53.538;8.584;2022-07-23T00:20:54;17.59;69.00
66522;SHT31;53349;53.538;8.584;2022-07-23T00:23:20;17.64;68.91
66522;SHT31;53349;53.538;8.584;2022-07-23T00:25:46;17.55;68.84
66522;SHT31;53349;53.538;8.584;2022-07-23T00:28:12;17.57;68.93
66522;SHT31;53349;53.538;8.584;2022-07-23T00:30:37;17.58;69.05
66522;SHT31;53349;53.538;8.584;2022-07-23T00:33:05;17.58;68.90
66522;SHT31;53349;53.538;8.584;2022-07-23T00:35:34;17.55;68.44
66522;SHT31;53349;53.538;8.584;2022-07-23T00:38:01;17.57;68.33
66522;SHT31;53349;53.538;8.584;2022-07-23T00:40:28;17.48;67.72
66522;SHT31;53349;53.538;8.584;2022-07-23T00:42:54;17.48;67.66
66522;SHT31;53349;53.538;8.584;2022-07-23T00:45:20;17.45;67.77
66522;SHT31;53349;53.538;8.584;2022-07-23T00:47:45;17.47;68.02
66522;SHT31;53349;53.538;8.584;2022-07-23T00:50:11;17.44;68.35
66522;SHT31;53349;53.538;8.584;2022-07-23T00:52:37;17.51;68.39
66522;SHT31;53349;53.538;8.584;2022-07-23T00:55:05;17.48;68.51
66522;SHT31;53349;53.538;8.584;2022-07-23T00:57:30;17.49;68.54
66522;SHT31;53349;53.538;8.584;2022-07-23T00:59:56;17.48;68.72
66522;SHT31;53349;53.538;8.584;2022-07-23T01:02:24;17.48;68.99
66522;SHT31;53349;53.538;8.584;2022-07-23T01:04:49;17.49;68.91
66522;SHT31;53349;53.538;8.584;2022-07-23T01:07:16;17.47;68.86
66522;SHT31;53349;53.538;8.584;2022-07-23T01:09:43;17.48;68.75
66522;SHT31;53349;53.538;8.584;2022-07-23T01:12:09;17.47;69.09
66522;SHT31;53349;53.538;8.584;2022-07-23T01:14:34;17.48;69.14
66522;SHT31;53349;53.538;8.584;2022-07-23T01:17:00;17.47;69.27
66522;SHT31;53349;53.538;8.584;2022-07-23T01:19:25;17.45;69.31
66522;SHT31;53349;53.538;8.584;2022-07-23T01:21:51;17.47;69.26
66522;SHT31;53349;53.538;8.584;2022-07-23T01:24:18;17.42;69.38
66522;SHT31;53349;53.538;8.584;2022-07-23T01:26:47;17.45;69.61
66522;SHT31;53349;53.538;8.584;2022-07-23T01:29:13;17.42;69.73
66522;SHT31;53349;53.538;8.584;2022-07-23T01:31:39;17.42;70.22
66522;SHT31;53349;53.538;8.584;2022-07-23T01:34:05;17.41;70.32
66522;SHT31;53349;53.538;8.584;2022-07-23T01:36:32;17.41;70.30
66522;SHT31;53349;53.538;8.584;2022-07-23T01:38:58;17.38;70.50
66522;SHT31;53349;53.538;8.584;2022-07-23T01:41:24;17.35;70.71
66522;SHT31;53349;53.538;8.584;2022-07-23T01:43:49;17.34;70.83
66522;SHT31;53349;53.538;8.584;2022-07-23T01:46:15;17.35;70.81
66522;SHT31;53349;53.538;8.584;2022-07-23T01:48:40;17.31;70.90
66522;SHT31;53349;53.538;8.584;2022-07-23T01:51:06;17.30;71.29
66522;SHT31;53349;53.538;8.584;2022-07-23T01:53:32;17.27;71.31
66522;SHT31;53349;53.538;8.584;2022-07-23T01:55:58;17.24;71.32
66522;SHT31;53349;53.538;8.584;2022-07-23T01:58:24;17.21;71.69
66522;SHT31;53349;53.538;8.584;2022-07-23T02:00:50;17.20;71.98
66522;SHT31;53349;53.538;8.584;2022-07-23T02:03:15;17.18;72.28
66522;SHT31;53349;53.538;8.584;2022-07-23T02:05:41;17.20;72.60
66522;SHT31;53349;53.538;8.584;2022-07-23T02:08:06;17.21;73.01
66522;SHT31;53349;53.538;8.584;2022-07-23T02:10:32;17.24;73.06
66522;SHT31;53349;53.538;8.584;2022-07-23T02:12:57;17.26;72.93
66522;SHT31;53349;53.538;8.584;2022-07-23T02:15:23;17.21;72.82
66522;SHT31;53349;53.538;8.584;2022-07-23T02:17:48;17.23;72.97
66522;SHT31;53349;53.538;8.584;2022-07-23T02:20:14;17.24;73.06
66522;SHT31;53349;53.538;8.584;2022-07-23T02:22:39;17.18;73.08
66522;SHT31;53349;53.538;8.584;2022-07-23T02:25:06;17.18;72.93
66522;SHT31;53349;53.538;8.584;2022-07-23T02:27:32;17.16;72.89
66522;SHT31;53349;53.538;8.584;2022-07-23T02:29:58;17.13;72.94
66522;SHT31;53349;53.538;8.584;2022-07-23T02:32:24;17.11;73.00
66522;SHT31;53349;53.538;8.584;2022-07-23T02:34:50;17.13;72.97
66522;SHT31;53349;53.538;8.584;2022-07-23T02:37:16;17.13;72.76
66522;SHT31;53349;53.538;8.584;2022-07-23T02:39:42;17.13;72.84
66522;SHT31;53349;53.538;8.584;2022-07-23T02:42:07;17.13;72.87
66522;SHT31;53349;53.538;8.584;2022-07-23T02:44:33;17.13;72.97
66522;SHT31;53349;53.538;8.584;2022-07-23T02:46:58;17.16;73.19
66522;SHT31;53349;53.538;8.584;2022-07-23T02:49:24;17.13;73.60
66522;SHT31;53349;53.538;8.584;2022-07-23T02:51:49;17.14;73.73
66522;SHT31;53349;53.538;8.584;2022-07-23T02:54:15;17.11;73.63
66522;SHT31;53349;53.538;8.584;2022-07-23T02:56:40;17.11;73.76
66522;SHT31;53349;53.538;8.584;2022-07-23T02:59:06;17.07;73.92
66522;SHT31;53349;53.538;8.584;2022-07-23T03:01:31;17.08;74.25
66522;SHT31;53349;53.538;8.584;2022-07-23T03:03:57;17.13;74.58
66522;SHT31;53349;53.538;8.584;2022-07-23T03:06:22;17.13;74.66
66522;SHT31;53349;53.538;8.584;2022-07-23T03:08:48;17.13;74.42
66522;SHT31;53349;53.538;8.584;2022-07-23T03:11:13;17.08;74.49
66522;SHT31;53349;53.538;8.584;2022-07-23T03:13:40;17.06;74.59
66522;SHT31;53349;53.538;8.584;2022-07-23T03:16:06;17.06;74.68
66522;SHT31;53349;53.538;8.584;2022-07-23T03:18:32;17.07;74.69
66522;SHT31;53349;53.538;8.584;2022-07-23T03:20:58;17.02;74.80
66522;SHT31;53349;53.538;8.584;2022-07-23T03:23:23;17.00;74.98
66522;SHT31;53349;53.538;8.584;2022-07-23T03:25:49;16.96;76.67
66522;SHT31;53349;53.538;8.584;2022-07-23T03:28:15;16.90;77.62
66522;SHT31;53349;53.538;8.584;2022-07-23T03:30:42;16.91;78.04
66522;SHT31;53349;53.538;8.584;2022-07-23T03:33:08;16.88;77.95
66522;SHT31;53349;53.538;8.584;2022-07-23T03:35:33;16.87;77.90
66522;SHT31;53349;53.538;8.584;2022-07-23T03:37:59;16.83;77.92
66522;SHT31;53349;53.538;8.584;2022-07-23T03:40:24;16.79;77.98
66522;SHT31;53349;53.538;8.584;2022-07-23T03:42:50;16.79;77.90
66522;SHT31;53349;53.538;8.584;2022-07-23T03:45:15;16.81;77.90
66522;SHT31;53349;53.538;8.584;2022-07-23T03:47:41;16.83;77.89
66522;SHT31;53349;53.538;8.584;2022-07-23T03:50:07;16.79;77.89
66522;SHT31;53349;53.538;8.584;2022-07-23T03:52:33;16.81;77.70
66522;SHT31;53349;53.538;8.584;2022-07-23T03:54:58;16.84;77.52
66522;SHT31;53349;53.538;8.584;2022-07-23T03:57:24;16.83;77.45
66522;SHT31;53349;53.538;8.584;2022-07-23T03:59:49;16.86;76.97
66522;SHT31;53349;53.538;8.584;2022-07-23T04:02:15;16.84;76.63
66522;SHT31;53349;53.538;8.584;2022-07-23T04:04:40;16.81;76.56
66522;SHT31;53349;53.538;8.584;2022-07-23T04:07:05;16.79;76.60
66522;SHT31;53349;53.538;8.584;2022-07-23T04:09:33;16.77;76.80
66522;SHT31;53349;53.538;8.584;2022-07-23T04:11:59;16.76;76.93
66522;SHT31;53349;53.538;8.584;2022-07-23T04:14:27;16.67;77.11
66522;SHT31;53349;53.538;8.584;2022-07-23T04:16:52;16.57;77.13
66522;SHT31;53349;53.538;8.584;2022-07-23T04:19:18;16.52;77.51
66522;SHT31;53349;53.538;8.584;2022-07-23T04:21:43;16.51;77.58
66522;SHT31;53349;53.538;8.584;2022-07-23T04:24:08;16.46;77.46
66522;SHT31;53349;53.538;8.584;2022-07-23T04:26:34;16.44;76.99
66522;SHT31;53349;53.538;8.584;2022-07-23T04:28:59;16.45;76.65
66522;SHT31;53349;53.538;8.584;2022-07-23T04:31:25;16.44;76.44
66522;SHT31;53349;53.538;8.584;2022-07-23T04:33:50;16.44;76.25
66522;SHT31;53349;53.538;8.584;2022-07-23T04:36:16;16.46;76.43
66522;SHT31;53349;53.538;8.584;2022-07-23T04:38:41;16.45;76.44
66522;SHT31;53349;53.538;8.584;2022-07-23T04:41:07;16.45;76.67
66522;SHT31;53349;53.538;8.584;2022-07-23T04:43:32;16.44;76.77
66522;SHT31;53349;53.538;8.584;2022-07-23T04:45:57;16.48;76.81
66522;SHT31;53349;53.538;8.584;2022-07-23T04:48:23;16.51;76.53
66522;SHT31;53349;53.538;8.584;2022-07-23T04:50:48;16.48;76.28
66522;SHT31;53349;53.538;8.584;2022-07-23T04:53:14;16.38;76.60
66522;SHT31;53349;53.538;8.584;2022-07-23T04:55:39;16.41;76.70
66522;SHT31;53349;53.538;8.584;2022-07-23T04:58:05;16.44;76.92
66522;SHT31;53349;53.538;8.584;2022-07-23T05:00:30;16.45;76.95
66522;SHT31;53349;53.538;8.584;2022-07-23T05:02:56;16.41;76.89
66522;SHT31;53349;53.538;8.584;2022-07-23T05:05:21;16.39;76.86
66522;SHT31;53349;53.538;8.584;2022-07-23T05:07:47;16.41;76.94
66522;SHT31;53349;53.538;8.584;2022-07-23T05:10:12;16.45;76.98
66522;SHT31;53349;53.538;8.584;2022-07-23T05:12:38;16.46;77.05
66522;SHT31;53349;53.538;8.584;2022-07-23T05:15:03;16.52;77.09
66522;SHT31;53349;53.538;8.584;2022-07-23T05:17:29;16.49;77.08
66522;SHT31;53349;53.538;8.584;2022-07-23T05:19:55;16.48;77.21
66522;SHT31;53349;53.538;8.584;2022-07-23T05:22:20;16.51;77.19
66522;SHT31;53349;53.538;8.584;2022-07-23T05:24:46;16.56;77.27
66522;SHT31;53349;53.538;8.584;2022-07-23T05:27:11;16.65;77.14
66522;SHT31;53349;53.538;8.584;2022-07-23T05:29:37;16.63;76.87
66522;SHT31;53349;53.538;8.584;2022-07-23T05:32:02;16.69;76.57
66522;SHT31;53349;53.538;8.584;2022-07-23T05:34:28;16.76;76.28
66522;SHT31;53349;53.538;8.584;2022-07-23T05:36:53;16.83;76.10
66522;SHT31;53349;53.538;8.584;2022-07-23T05:39:19;16.88;75.21
66522;SHT31;53349;53.538;8.584;2022-07-23T05:41:44;16.94;75.13
66522;SHT31;53349;53.538;8.584;2022-07-23T05:44:09;16.99;74.89
66522;SHT31;53349;53.538;8.584;2022-07-23T05:46:35;17.03;74.93
66522;SHT31;53349;53.538;8.584;2022-07-23T05:49:00;17.07;75.01
66522;SHT31;53349;53.538;8.584;2022-07-23T05:51:26;17.10;75.23
66522;SHT31;53349;53.538;8.584;2022-07-23T05:53:53;17.17;74.95
66522;SHT31;53349;53.538;8.584;2022-07-23T05:56:18;17.30;74.33
66522;SHT31;53349;53.538;8.584;2022-07-23T05:58:44;17.32;73.82
66522;SHT31;53349;53.538;8.584;2022-07-23T06:01:10;17.38;73.00
66522;SHT31;53349;53.538;8.584;2022-07-23T06:03:37;17.39;72.89
66522;SHT31;53349;53.538;8.584;2022-07-23T06:06:03;17.44;72.28
66522;SHT31;53349;53.538;8.584;2022-07-23T06:08:29;17.54;71.98
66522;SHT31;53349;53.538;8.584;2022-07-23T06:10:54;17.68;71.45
66522;SHT31;53349;53.538;8.584;2022-07-23T06:13:20;17.83;70.62
66522;SHT31;53349;53.538;8.584;2022-07-23T06:15:46;17.89;69.79
66522;SHT31;53349;53.538;8.584;2022-07-23T06:18:11;17.99;69.39
66522;SHT31;53349;53.538;8.584;2022-07-23T06:20:37;18.05;69.28
66522;SHT31;53349;53.538;8.584;2022-07-23T06:23:03;18.00;69.32
66522;SHT31;53349;53.538;8.584;2022-07-23T06:25:29;18.02;69.77
66522;SHT31;53349;53.538;8.584;2022-07-23T06:27:55;17.95;69.71
66522;SHT31;53349;53.538;8.584;2022-07-23T06:30:21;17.88;69.99
66522;SHT31;53349;53.538;8.584;2022-07-23T06:32:47;17.96;70.00
66522;SHT31;53349;53.538;8.584;2022-07-23T06:35:12;17.98;69.64
66522;SHT31;53349;53.538;8.584;2022-07-23T06:37:38;17.92;70.27
66522;SHT31;53349;53.538;8.584;2022-07-23T06:40:04;17.98;70.29
66522;SHT31;53349;53.538;8.584;2022-07-23T06:42:29;18.07;70.26
66522;SHT31;53349;53.538;8.584;2022-07-23T06:44:55;18.06;69.99
66522;SHT31;53349;53.538;8.584;2022-07-23T06:47:20;18.05;69.56
66522;SHT31;53349;53.538;8.584;2022-07-23T06:49:46;18.07;69.21
66522;SHT31;53349;53.538;8.584;2022-07-23T06:52:12;18.10;68.70
66522;SHT31;53349;53.538;8.584;2022-07-23T06:54:37;18.03;68.59
66522;SHT31;53349;53.538;8.584;2022-07-23T06:57:03;18.07;68.97
66522;SHT31;53349;53.538;8.584;2022-07-23T06:59:28;18.16;69.16
66522;SHT31;53349;53.538;8.584;2022-07-23T07:01:53;18.20;69.35
66522;SHT31;53349;53.538;8.584;2022-07-23T07:04:19;18.26;68.97
66522;SHT31;53349;53.538;8.584;2022-07-23T07:06:44;18.36;68.66
66522;SHT31;53349;53.538;8.584;2022-07-23T07:09:10;18.43;68.19
66522;SHT31;53349;53.538;8.584;2022-07-23T07:11:35;18.47;68.32
66522;SHT31;53349;53.538;8.584;2022-07-23T07:14:01;18.53;68.15
66522;SHT31;53349;53.538;8.584;2022-07-23T07:16:29;18.95;66.88
66522;SHT31;53349;53.538;8.584;2022-07-23T07:18:56;19.15;65.40
66522;SHT31;53349;53.538;8.584;2022-07-23T07:21:22;19.14;65.52
66522;SHT31;53349;53.538;8.584;2022-07-23T07:23:50;19.02;66.01
66522;SHT31;53349;53.538;8.584;2022-07-23T07:26:15;19.01;65.60
66522;SHT31;53349;53.538;8.584;2022-07-23T07:28:41;19.09;65.50
66522;SHT31;53349;53.538;8.584;2022-07-23T07:31:06;19.07;65.63
66522;SHT31;53349;53.538;8.584;2022-07-23T07:33:33;18.92;66.11
66522;SHT31;53349;53.538;8.584;2022-07-23T07:35:58;18.72;67.76
66522;SHT31;53349;53.538;8.584;2022-07-23T07:38:25;18.47;68.53
66522;SHT31;53349;53.538;8.584;2022-07-23T07:40:51;18.30;66.80
66522;SHT31;53349;53.538;8.584;2022-07-23T07:43:16;18.12;65.59
66522;SHT31;53349;53.538;8.584;2022-07-23T07:45:41;18.06;66.63
66522;SHT31;53349;53.538;8.584;2022-07-23T07:48:07;18.09;67.34
66522;SHT31;53349;53.538;8.584;2022-07-23T07:50:32;18.16;67.35
66522;SHT31;53349;53.538;8.584;2022-07-23T07:52:58;18.14;66.13
66522;SHT31;53349;53.538;8.584;2022-07-23T07:55:24;18.20;66.44
66522;SHT31;53349;53.538;8.584;2022-07-23T07:57:49;18.27;67.06
66522;SHT31;53349;53.538;8.584;2022-07-23T08:00:16;18.29;65.69
66522;SHT31;53349;53.538;8.584;2022-07-23T08:02:45;18.32;66.35
66522;SHT31;53349;53.538;8.584;2022-07-23T08:05:12;18.32;66.51
66522;SHT31;53349;53.538;8.584;2022-07-23T08:07:38;18.34;66.86
66522;SHT31;53349;53.538;8.584;2022-07-23T08:10:08;18.37;67.39
66522;SHT31;53349;53.538;8.584;2022-07-23T08:12:51;18.36;67.21
66522;SHT31;53349;53.538;8.584;2022-07-23T08:15:18;18.41;68.38
66522;SHT31;53349;53.538;8.584;2022-07-23T08:17:45;18.50;69.02
66522;SHT31;53349;53.538;8.584;2022-07-23T08:20:13;18.51;69.09
66522;SHT31;53349;53.538;8.584;2022-07-23T08:22:56;18.56;69.18
66522;SHT31;53349;53.538;8.584;2022-07-23T08:25:32;18.56;68.98
66522;SHT31;53349;53.538;8.584;2022-07-23T08:28:00;18.65;69.20
66522;SHT31;53349;53.538;8.584;2022-07-23T08:30:27;18.75;68.88
66522;SHT31;53349;53.538;8.584;2022-07-23T08:32:58;18.88;68.58
66522;SHT31;53349;53.538;8.584;2022-07-23T08:35:28;18.92;67.48
66522;SHT31;53349;53.538;8.584;2022-07-23T08:37:54;18.97;67.13
66522;SHT31;53349;53.538;8.584;2022-07-23T08:40:19;19.18;66.85
66522;SHT31;53349;53.538;8.584;2022-07-23T08:42:49;19.25;65.69
66522;SHT31;53349;53.538;8.584;2022-07-23T08:45:17;19.20;65.56
66522;SHT31;53349;53.538;8.584;2022-07-23T08:47:44;19.22;65.95
66522;SHT31;53349;53.538;8.584;2022-07-23T08:50:10;19.23;65.64
66522;SHT31;53349;53.538;8.584;2022-07-23T08:52:36;19.19;65.11
66522;SHT31;53349;53.538;8.584;2022-07-23T08:55:01;19.22;65.48
66522;SHT31;53349;53.538;8.584;2022-07-23T08:57:27;19.26;65.82
66522;SHT31;53349;53.538;8.584;2022-07-23T08:59:52;19.20;65.98
66522;SHT31;53349;53.538;8.584;2022-07-23T09:02:18;19.12;65.64
66522;SHT31;53349;53.538;8.584;2022-07-23T09:04:43;19.09;65.61
66522;SHT31;53349;53.538;8.584;2022-07-23T09:07:09;19.07;65.96
66522;SHT31;53349;53.538;8.584;2022-07-23T09:09:35;18.98;65.06
66522;SHT31;53349;53.538;8.584;2022-07-23T09:12:05;18.91;65.51
66522;SHT31;53349;53.538;8.584;2022-07-23T09:17:17;18.68;65.88
66522;SHT31;53349;53.538;8.584;2022-07-23T09:19:44;18.69;65.92
66522;SHT31;53349;53.538;8.584;2022-07-23T09:22:23;18.68;65.99
66522;SHT31;53349;53.538;8.584;2022-07-23T09:30:15;18.56;67.15
66522;SHT31;53349;53.538;8.584;2022-07-23T09:32:40;18.47;67.76
66522;SHT31;53349;53.538;8.584;2022-07-23T09:35:06;18.46;67.59
66522;SHT31;53349;53.538;8.584;2022-07-23T09:37:32;18.53;70.25
66522;SHT31;53349;53.538;8.584;2022-07-23T09:40:09;18.64;68.97
66522;SHT31;53349;53.538;8.584;2022-07-23T09:42:37;18.79;68.19
66522;SHT31;53349;53.538;8.584;2022-07-23T09:45:02;18.94;68.34
66522;SHT31;53349;53.538;8.584;2022-07-23T09:47:30;19.04;67.25
66522;SHT31;53349;53.538;8.584;2022-07-23T09:50:06;19.11;67.04
66522;SHT31;53349;53.538;8.584;2022-07-23T09:52:44;19.15;66.96
66522;SHT31;53349;53.538;8.584;2022-07-23T09:55:11;19.26;65.86
66522;SHT31;53349;53.538;8.584;2022-07-23T09:57:37;19.33;65.29
66522;SHT31;53349;53.538;8.584;2022-07-23T10:00:06;19.33;62.90
66522;SHT31;53349;53.538;8.584;2022-07-23T10:02:34;19.35;62.10
66522;SHT31;53349;53.538;8.584;2022-07-23T10:05:01;19.56;63.35
66522;SHT31;53349;53.538;8.584;2022-07-23T10:07:31;19.74;62.91
66522;SHT31;53349;53.538;8.584;2022-07-23T10:09:59;19.81;62.43
66522;SHT31;53349;53.538;8.584;2022-07-23T10:12:25;19.98;62.51
66522;SHT31;53349;53.538;8.584;2022-07-23T10:15:09;20.37;61.38
66522;SHT31;53349;53.538;8.584;2022-07-23T10:17:35;20.64;60.90
66522;SHT31;53349;53.538;8.584;2022-07-23T10:20:01;20.73;59.36
66522;SHT31;53349;53.538;8.584;2022-07-23T10:22:30;20.83;60.53
66522;SHT31;53349;53.538;8.584;2022-07-23T10:25:08;20.85;59.72
66522;SHT31;53349;53.538;8.584;2022-07-23T10:33:20;20.79;59.17
66522;SHT31;53349;53.538;8.584;2022-07-23T10:38:39;20.97;60.21
66522;SHT31;53349;53.538;8.584;2022-07-23T10:41:08;20.95;59.93
66522;SHT31;53349;53.538;8.584;2022-07-23T10:43:33;20.96;58.84
66522;SHT31;53349;53.538;8.584;2022-07-23T10:46:24;20.90;59.39
66522;SHT31;53349;53.538;8.584;2022-07-23T10:49:30;20.89;59.43
66522;SHT31;53349;53.538;8.584;2022-07-23T10:54:45;20.73;58.99
66522;SHT31;53349;53.538;8.584;2022-07-23T10:57:11;20.71;59.51
66522;SHT31;53349;53.538;8.584;2022-07-23T11:02:38;20.65;58.63
66522;SHT31;53349;53.538;8.584;2022-07-23T11:05:09;20.62;58.92
66522;SHT31;53349;53.538;8.584;2022-07-23T11:07:36;20.58;58.83
66522;SHT31;53349;53.538;8.584;2022-07-23T11:10:03;20.52;58.65
66522;SHT31;53349;53.538;8.584;2022-07-23T11:15:14;20.44;59.08
66522;SHT31;53349;53.538;8.584;2022-07-23T11:20:14;20.48;59.35
66522;SHT31;53349;53.538;8.584;2022-07-23T11:25:14;20.55;57.96
66522;SHT31;53349;53.538;8.584;2022-07-23T11:27:53;20.59;58.04
66522;SHT31;53349;53.538;8.584;2022-07-23T11:33:15;20.66;57.77
66522;SHT31;53349;53.538;8.584;2022-07-23T11:35:49;20.82;58.04
66522;SHT31;53349;53.538;8.584;2022-07-23T11:38:21;20.90;57.25
66522;SHT31;53349;53.538;8.584;2022-07-23T11:40:50;21.09;56.88
66522;SHT31;53349;53.538;8.584;2022-07-23T11:43:17;21.30;56.41
66522;SHT31;53349;53.538;8.584;2022-07-23T11:45:45;21.53;55.59
66522;SHT31;53349;53.538;8.584;2022-07-23T11:48:22;21.65;55.38
66522;SHT31;53349;53.538;8.584;2022-07-23T11:50:48;21.71;54.65
66522;SHT31;53349;53.538;8.584;2022-07-23T11:53:35;21.75;53.65
66522;SHT31;53349;53.538;8.584;2022-07-23T11:56:08;21.85;54.59
66522;SHT31;53349;53.538;8.584;2022-07-23T11:58:34;21.85;54.53
66522;SHT31;53349;53.538;8.584;2022-07-23T12:01:00;21.81;54.41
66522;SHT31;53349;53.538;8.584;2022-07-23T12:03:25;21.71;54.53
66522;SHT31;53349;53.538;8.584;2022-07-23T12:05:56;21.69;55.80
66522;SHT31;53349;53.538;8.584;2022-07-23T12:08:22;21.62;56.27
66522;SHT31;53349;53.538;8.584;2022-07-23T12:10:50;21.58;56.44
66522;SHT31;53349;53.538;8.584;2022-07-23T12:13:18;21.51;56.07
66522;SHT31;53349;53.538;8.584;2022-07-23T12:15:46;21.43;56.42
66522;SHT31;53349;53.538;8.584;2022-07-23T12:18:20;21.41;56.51
66522;SHT31;53349;53.538;8.584;2022-07-23T12:20:54;21.41;56.25
66522;SHT31;53349;53.538;8.584;2022-07-23T12:23:25;21.23;55.78
66522;SHT31;53349;53.538;8.584;2022-07-23T12:25:51;21.24;56.15
66522;SHT31;53349;53.538;8.584;2022-07-23T12:30:52;21.20;56.21
66522;SHT31;53349;53.538;8.584;2022-07-23T12:33:26;21.27;56.16
66522;SHT31;53349;53.538;8.584;2022-07-23T12:35:58;21.24;56.23
66522;SHT31;53349;53.538;8.584;2022-07-23T12:38:26;21.36;55.82
66522;SHT31;53349;53.538;8.584;2022-07-23T12:40:59;21.37;55.70
66522;SHT31;53349;53.538;8.584;2022-07-23T12:43:39;21.38;56.43
66522;SHT31;53349;53.538;8.584;2022-07-23T12:51:14;21.36;55.83
66522;SHT31;53349;53.538;8.584;2022-07-23T12:53:54;21.33;55.13
66522;SHT31;53349;53.538;8.584;2022-07-23T12:56:22;21.37;56.27
66522;SHT31;53349;53.538;8.584;2022-07-23T12:59:08;21.36;56.04
66522;SHT31;53349;53.538;8.584;2022-07-23T13:01:54;21.31;56.85
66522;SHT31;53349;53.538;8.584;2022-07-23T13:04:26;21.38;57.12
66522;SHT31;53349;53.538;8.584;2022-07-23T13:06:57;21.46;57.45
66522;SHT31;53349;53.538;8.584;2022-07-23T13:09:30;21.54;56.82
66522;SHT31;53349;53.538;8.584;2022-07-23T13:11:57;21.64;56.52
66522;SHT31;53349;53.538;8.584;2022-07-23T13:14:26;21.73;56.66
66522;SHT31;53349;53.538;8.584;2022-07-23T13:16:53;21.62;56.76
66522;SHT31;53349;53.538;8.584;2022-07-23T13:19:19;21.68;56.63
66522;SHT31;53349;53.538;8.584;2022-07-23T13:21:47;21.77;56.36
66522;SHT31;53349;53.538;8.584;2022-07-23T13:24:15;21.81;55.69
66522;SHT31;53349;53.538;8.584;2022-07-23T13:26:41;21.75;56.12
66522;SHT31;53349;53.538;8.584;2022-07-23T13:29:07;21.81;56.32
66522;SHT31;53349;53.538;8.584;2022-07-23T13:31:33;21.78;56.36
66522;SHT31;53349;53.538;8.584;2022-07-23T13:33:58;21.65;55.72
66522;SHT31;53349;53.538;8.584;2022-07-23T13:36:24;21.61;55.93
66522;SHT31;53349;53.538;8.584;2022-07-23T13:38:49;21.54;56.24
66522;SHT31;53349;53.538;8.584;2022-07-23T13:41:19;21.54;56.42
66522;SHT31;53349;53.538;8.584;2022-07-23T13:43:45;21.46;56.37
66522;SHT31;53349;53.538;8.584;2022-07-23T13:46:11;21.47;57.08
66522;SHT31;53349;53.538;8.584;2022-07-23T13:48:36;21.55;57.48
66522;SHT31;53349;53.538;8.584;2022-07-23T13:51:01;21.58;57.17
66522;SHT31;53349;53.538;8.584;2022-07-23T13:53:27;21.55;57.16
66522;SHT31;53349;53.538;8.584;2022-07-23T13:55:56;21.51;57.16
66522;SHT31;53349;53.538;8.584;2022-07-23T13:58:22;21.57;57.12
66522;SHT31;53349;53.538;8.584;2022-07-23T14:00:50;21.57;56.67
66522;SHT31;53349;53.538;8.584;2022-07-23T14:03:17;21.55;56.27
66522;SHT31;53349;53.538;8.584;2022-07-23T14:05:44;21.51;55.94
66522;SHT31;53349;53.538;8.584;2022-07-23T14:08:09;21.51;55.69
66522;SHT31;53349;53.538;8.584;2022-07-23T14:10:35;21.55;55.25
66522;SHT31;53349;53.538;8.584;2022-07-23T14:13:01;21.48;55.15
66522;SHT31;53349;53.538;8.584;2022-07-23T14:15:29;21.48;56.07
66522;SHT31;53349;53.538;8.584;2022-07-23T14:17:55;21.44;55.97
66522;SHT31;53349;53.538;8.584;2022-07-23T14:20:25;21.43;56.65
66522;SHT31;53349;53.538;8.584;2022-07-23T14:22:51;21.41;56.62
66522;SHT31;53349;53.538;8.584;2022-07-23T14:25:17;21.37;56.70
66522;SHT31;53349;53.538;8.584;2022-07-23T14:27:43;21.36;56.36
66522;SHT31;53349;53.538;8.584;2022-07-23T14:30:10;21.31;56.31
66522;SHT31;53349;53.538;8.584;2022-07-23T14:32:36;21.23;55.80
66522;SHT31;53349;53.538;8.584;2022-07-23T14:35:03;21.20;56.21
66522;SHT31;53349;53.538;8.584;2022-07-23T14:37:29;21.14;56.80
66522;SHT31;53349;53.538;8.584;2022-07-23T14:39:55;21.11;57.17
66522;SHT31;53349;53.538;8.584;2022-07-23T14:42:20;21.17;56.40
66522;SHT31;53349;53.538;8.584;2022-07-23T14:44:46;21.16;56.18
66522;SHT31;53349;53.538;8.584;2022-07-23T14:47:11;21.04;56.14
66522;SHT31;53349;53.538;8.584;2022-07-23T14:49:37;21.09;56.27
66522;SHT31;53349;53.538;8.584;2022-07-23T14:52:05;21.04;56.19
66522;SHT31;53349;53.538;8.584;2022-07-23T14:54:31;20.92;55.82
66522;SHT31;53349;53.538;8.584;2022-07-23T14:56:58;20.93;56.90
66522;SHT31;53349;53.538;8.584;2022-07-23T14:59:24;20.96;56.53
66522;SHT31;53349;53.538;8.584;2022-07-23T15:01:50;20.89;56.91
66522;SHT31;53349;53.538;8.584;2022-07-23T15:04:16;20.86;56.85
66522;SHT31;53349;53.538;8.584;2022-07-23T15:06:42;20.83;56.96
66522;SHT31;53349;53.538;8.584;2022-07-23T15:09:08;20.85;57.25
66522;SHT31;53349;53.538;8.584;2022-07-23T15:11:34;20.82;57.09
66522;SHT31;53349;53.538;8.584;2022-07-23T15:14:02;20.86;56.78
66522;SHT31;53349;53.538;8.584;2022-07-23T15:16:27;20.82;56.56
66522;SHT31;53349;53.538;8.584;2022-07-23T15:18:53;20.82;56.91
66522;SHT31;53349;53.538;8.584;2022-07-23T15:21:19;20.76;56.64
66522;SHT31;53349;53.538;8.584;2022-07-23T15:23:44;20.69;56.67
66522;SHT31;53349;53.538;8.584;2022-07-23T15:26:10;20.75;56.99
66522;SHT31;53349;53.538;8.584;2022-07-23T15:28:36;20.72;56.70
66522;SHT31;53349;53.538;8.584;2022-07-23T15:31:02;20.72;56.57
66522;SHT31;53349;53.538;8.584;2022-07-23T15:33:28;20.71;56.19
66522;SHT31;53349;53.538;8.584;2022-07-23T15:35:53;20.65;56.29
66522;SHT31;53349;53.538;8.584;2022-07-23T15:38:21;20.66;56.37
66522;SHT31;53349;53.538;8.584;2022-07-23T15:40:48;20.65;56.57
66522;SHT31;53349;53.538;8.584;2022-07-23T15:43:14;20.64;56.81
66522;SHT31;53349;53.538;8.584;2022-07-23T15:45:40;20.62;56.65
66522;SHT31;53349;53.538;8.584;2022-07-23T15:48:07;20.58;56.80
66522;SHT31;53349;53.538;8.584;2022-07-23T15:50:33;20.59;56.97
66522;SHT31;53349;53.538;8.584;2022-07-23T15:52:58;20.55;56.87
66522;SHT31;53349;53.538;8.584;2022-07-23T15:55:24;20.55;57.02
66522;SHT31;53349;53.538;8.584;2022-07-23T15:57:50;20.52;56.69
66522;SHT31;53349;53.538;8.584;2022-07-23T16:00:16;20.48;56.97
66522;SHT31;53349;53.538;8.584;2022-07-23T16:02:42;20.44;56.71
66522;SHT31;53349;53.538;8.584;2022-07-23T16:05:07;20.44;56.76
66522;SHT31;53349;53.538;8.584;2022-07-23T16:07:52;20.48;57.17
66522;SHT31;53349;53.538;8.584;2022-07-23T16:10:18;20.49;56.66